KHDE

Brewster Field Airport

Holdrege, Nebraska, USA
METAR KHDE 271155Z AUTO 19007KT 10SM CLR 20/15 A2987 RMK AO2 T02000153 10221 20197
Observed Flight Rules
May-27 @ 11:55 UTC (10 minutes ago) Visual Flight Rules
Wind Visibility Clouds
190° at 7 knots 10 miles
  • Clear skies
Temperatures Readings
Current 20°C / 68°F
Dewpoint 15°C / 59°F
Humidity 73%
Altimeter 29.87" Hg
Pressure 1012 hPa
Elevation 705
METAR KHDE 271155Z AUTO 19007KT 10SM CLR 20/15 A2987 RMK AO2 T02000153 10221 20197
Observed Flight Rules
May-27 @ 11:55 UTC
(10 minutes ago)
VFR
Wind Visibility
190° at 7 knots 10 miles
Clouds
  • Clear skies
Temperature Dewpoint
20°C / 68°F 15°C / 59°F
Humidity Altimeter Pressure
73% 29.87" Hg 1012 hPa